sensor_id;sensor_type;location;lat;lon;timestamp;temperature;humidity
13470;DHT22;6807;48.682;9.032;2023-04-25T00:00:02;7.80;99.90
13470;DHT22;6807;48.682;9.032;2023-04-25T00:02:32;7.10;99.90
13470;DHT22;6807;48.682;9.032;2023-04-25T00:05:01;7.30;99.90
13470;DHT22;6807;48.682;9.032;2023-04-25T00:07:28;7.10;99.90
13470;DHT22;6807;48.682;9.032;2023-04-25T00:09:56;7.30;99.90
13470;DHT22;6807;48.682;9.032;2023-04-25T00:12:24;7.10;99.90
13470;DHT22;6807;48.682;9.032;2023-04-25T00:14:51;7.40;99.90
13470;DHT22;6807;48.682;9.032;2023-04-25T00:17:18;7.50;99.90
13470;DHT22;6807;48.682;9.032;2023-04-25T00:19:45;7.70;99.90
13470;DHT22;6807;48.682;9.032;2023-04-25T00:22:14;8.00;99.90
13470;DHT22;6807;48.682;9.032;2023-04-25T00:24:41;7.20;99.90
13470;DHT22;6807;48.682;9.032;2023-04-25T00:27:08;7.10;99.90
13470;DHT22;6807;48.682;9.032;2023-04-25T00:29:35;7.30;99.90
13470;DHT22;6807;48.682;9.032;2023-04-25T00:32:02;7.10;99.90
13470;DHT22;6807;48.682;9.032;2023-04-25T00:34:29;7.20;99.90
13470;DHT22;6807;48.682;9.032;2023-04-25T00:36:56;7.30;99.90
13470;DHT22;6807;48.682;9.032;2023-04-25T00:39:24;7.20;99.90
13470;DHT22;6807;48.682;9.032;2023-04-25T00:41:52;7.30;99.90
13470;DHT22;6807;48.682;9.032;2023-04-25T00:44:20;7.20;99.90
13470;DHT22;6807;48.682;9.032;2023-04-25T00:46:47;7.00;99.90
13470;DHT22;6807;48.682;9.032;2023-04-25T00:49:15;7.10;99.90
13470;DHT22;6807;48.682;9.032;2023-04-25T00:51:43;7.10;99.90
13470;DHT22;6807;48.682;9.032;2023-04-25T00:54:11;7.10;99.90
13470;DHT22;6807;48.682;9.032;2023-04-25T00:56:40;7.80;99.90
13470;DHT22;6807;48.682;9.032;2023-04-25T00:59:08;7.10;99.90
13470;DHT22;6807;48.682;9.032;2023-04-25T01:01:36;7.20;99.90
13470;DHT22;6807;48.682;9.032;2023-04-25T01:04:03;7.10;99.90
13470;DHT22;6807;48.682;9.032;2023-04-25T01:06:30;7.10;99.90
13470;DHT22;6807;48.682;9.032;2023-04-25T01:08:59;7.20;99.90
13470;DHT22;6807;48.682;9.032;2023-04-25T01:11:26;7.10;99.90
13470;DHT22;6807;48.682;9.032;2023-04-25T01:13:54;7.20;99.90
13470;DHT22;6807;48.682;9.032;2023-04-25T01:16:22;7.20;99.90
13470;DHT22;6807;48.682;9.032;2023-04-25T01:18:50;7.20;99.90
13470;DHT22;6807;48.682;9.032;2023-04-25T01:21:18;7.50;99.90
13470;DHT22;6807;48.682;9.032;2023-04-25T01:23:46;7.10;99.90
13470;DHT22;6807;48.682;9.032;2023-04-25T01:26:14;7.20;99.90
13470;DHT22;6807;48.682;9.032;2023-04-25T01:28:41;7.20;1.00
13470;DHT22;6807;48.682;9.032;2023-04-25T01:31:08;6.90;1.00
13470;DHT22;6807;48.682;9.032;2023-04-25T01:33:36;6.30;1.00
13470;DHT22;6807;48.682;9.032;2023-04-25T01:36:04;6.20;1.00
13470;DHT22;6807;48.682;9.032;2023-04-25T01:38:32;6.20;1.00
13470;DHT22;6807;48.682;9.032;2023-04-25T01:40:59;6.40;1.00
13470;DHT22;6807;48.682;9.032;2023-04-25T01:43:26;6.90;1.00
13470;DHT22;6807;48.682;9.032;2023-04-25T01:45:53;6.60;1.00
13470;DHT22;6807;48.682;9.032;2023-04-25T01:48:21;7.50;1.00
13470;DHT22;6807;48.682;9.032;2023-04-25T01:50:48;6.10;1.00
13470;DHT22;6807;48.682;9.032;2023-04-25T01:53:15;6.20;1.00
13470;DHT22;6807;48.682;9.032;2023-04-25T01:55:43;6.00;1.00
13470;DHT22;6807;48.682;9.032;2023-04-25T01:58:10;7.30;1.00
13470;DHT22;6807;48.682;9.032;2023-04-25T02:00:38;6.90;1.00
13470;DHT22;6807;48.682;9.032;2023-04-25T02:03:06;6.10;1.00
13470;DHT22;6807;48.682;9.032;2023-04-25T02:05:36;6.90;1.00
13470;DHT22;6807;48.682;9.032;2023-04-25T02:08:05;6.10;1.00
13470;DHT22;6807;48.682;9.032;2023-04-25T02:10:33;7.50;1.00
13470;DHT22;6807;48.682;9.032;2023-04-25T02:13:02;6.80;1.00
13470;DHT22;6807;48.682;9.032;2023-04-25T02:15:29;6.00;1.00
13470;DHT22;6807;48.682;9.032;2023-04-25T02:17:56;6.00;1.00
13470;DHT22;6807;48.682;9.032;2023-04-25T02:20:26;6.10;1.00
13470;DHT22;6807;48.682;9.032;2023-04-25T02:22:54;5.90;1.00
13470;DHT22;6807;48.682;9.032;2023-04-25T02:25:22;5.90;1.00
13470;DHT22;6807;48.682;9.032;2023-04-25T02:27:49;7.10;1.00
13470;DHT22;6807;48.682;9.032;2023-04-25T02:30:18;7.40;1.00
13470;DHT22;6807;48.682;9.032;2023-04-25T02:32:45;6.00;1.00
13470;DHT22;6807;48.682;9.032;2023-04-25T02:35:12;6.70;1.00
13470;DHT22;6807;48.682;9.032;2023-04-25T02:37:40;7.00;1.00
13470;DHT22;6807;48.682;9.032;2023-04-25T02:40:08;6.60;1.00
13470;DHT22;6807;48.682;9.032;2023-04-25T02:42:35;6.00;1.00
13470;DHT22;6807;48.682;9.032;2023-04-25T02:45:02;6.00;1.00
13470;DHT22;6807;48.682;9.032;2023-04-25T02:47:30;6.10;1.00
13470;DHT22;6807;48.682;9.032;2023-04-25T02:49:57;7.00;1.00
13470;DHT22;6807;48.682;9.032;2023-04-25T02:52:24;7.00;1.00
13470;DHT22;6807;48.682;9.032;2023-04-25T02:54:51;6.00;1.00
13470;DHT22;6807;48.682;9.032;2023-04-25T02:57:18;5.90;1.00
13470;DHT22;6807;48.682;9.032;2023-04-25T02:59:45;5.90;1.00
13470;DHT22;6807;48.682;9.032;2023-04-25T03:02:12;5.90;1.00
13470;DHT22;6807;48.682;9.032;2023-04-25T03:04:41;5.90;1.00
13470;DHT22;6807;48.682;9.032;2023-04-25T03:07:08;6.50;1.00
13470;DHT22;6807;48.682;9.032;2023-04-25T03:09:34;7.20;1.00
13470;DHT22;6807;48.682;9.032;2023-04-25T03:12:01;6.30;1.00
13470;DHT22;6807;48.682;9.032;2023-04-25T03:14:28;6.00;1.00
13470;DHT22;6807;48.682;9.032;2023-04-25T03:16:55;6.00;1.00
13470;DHT22;6807;48.682;9.032;2023-04-25T03:19:22;6.20;1.00
13470;DHT22;6807;48.682;9.032;2023-04-25T03:21:50;7.00;1.00
13470;DHT22;6807;48.682;9.032;2023-04-25T03:24:19;6.10;1.00
13470;DHT22;6807;48.682;9.032;2023-04-25T03:26:46;6.40;1.00
13470;DHT22;6807;48.682;9.032;2023-04-25T03:29:12;7.20;1.00
13470;DHT22;6807;48.682;9.032;2023-04-25T03:31:39;6.20;1.00
13470;DHT22;6807;48.682;9.032;2023-04-25T03:34:06;6.20;1.00
13470;DHT22;6807;48.682;9.032;2023-04-25T03:36:33;6.90;1.00
13470;DHT22;6807;48.682;9.032;2023-04-25T03:39:01;6.70;1.00
13470;DHT22;6807;48.682;9.032;2023-04-25T03:41:28;6.10;1.00
13470;DHT22;6807;48.682;9.032;2023-04-25T03:43:55;6.00;1.00
13470;DHT22;6807;48.682;9.032;2023-04-25T03:46:22;7.20;1.00
13470;DHT22;6807;48.682;9.032;2023-04-25T03:48:49;5.80;1.00
13470;DHT22;6807;48.682;9.032;2023-04-25T03:51:16;7.10;1.00
13470;DHT22;6807;48.682;9.032;2023-04-25T03:53:43;6.80;1.00
13470;DHT22;6807;48.682;9.032;2023-04-25T03:56:11;5.80;1.00
13470;DHT22;6807;48.682;9.032;2023-04-25T03:58:38;6.40;1.00
13470;DHT22;6807;48.682;9.032;2023-04-25T04:01:05;7.00;1.00
13470;DHT22;6807;48.682;9.032;2023-04-25T04:03:33;5.90;1.00
13470;DHT22;6807;48.682;9.032;2023-04-25T04:06:00;6.10;1.00
13470;DHT22;6807;48.682;9.032;2023-04-25T04:08:28;7.10;1.00
13470;DHT22;6807;48.682;9.032;2023-04-25T04:10:56;6.00;1.00
13470;DHT22;6807;48.682;9.032;2023-04-25T04:13:25;7.60;1.00
13470;DHT22;6807;48.682;9.032;2023-04-25T04:15:52;7.00;1.00
13470;DHT22;6807;48.682;9.032;2023-04-25T04:18:19;6.80;1.00
13470;DHT22;6807;48.682;9.032;2023-04-25T04:20:46;7.20;1.00
13470;DHT22;6807;48.682;9.032;2023-04-25T04:23:13;6.40;1.00
13470;DHT22;6807;48.682;9.032;2023-04-25T04:25:40;5.80;1.00
13470;DHT22;6807;48.682;9.032;2023-04-25T04:28:07;5.70;1.00
13470;DHT22;6807;48.682;9.032;2023-04-25T04:30:35;5.70;1.00
13470;DHT22;6807;48.682;9.032;2023-04-25T04:33:03;5.70;1.00
13470;DHT22;6807;48.682;9.032;2023-04-25T04:35:30;5.60;1.00
13470;DHT22;6807;48.682;9.032;2023-04-25T04:37:57;5.50;1.00
13470;DHT22;6807;48.682;9.032;2023-04-25T04:40:24;5.40;1.00
13470;DHT22;6807;48.682;9.032;2023-04-25T04:42:51;5.40;1.00
13470;DHT22;6807;48.682;9.032;2023-04-25T04:45:22;5.40;1.00
13470;DHT22;6807;48.682;9.032;2023-04-25T04:47:50;6.60;1.00
13470;DHT22;6807;48.682;9.032;2023-04-25T04:50:17;5.60;1.00
13470;DHT22;6807;48.682;9.032;2023-04-25T04:52:44;5.80;1.00
13470;DHT22;6807;48.682;9.032;2023-04-25T04:55:11;6.10;1.00
13470;DHT22;6807;48.682;9.032;2023-04-25T04:57:38;5.90;1.00
13470;DHT22;6807;48.682;9.032;2023-04-25T05:00:06;5.90;1.00
13470;DHT22;6807;48.682;9.032;2023-04-25T05:02:37;5.90;1.00
13470;DHT22;6807;48.682;9.032;2023-04-25T05:05:06;6.50;1.00
13470;DHT22;6807;48.682;9.032;2023-04-25T05:07:35;6.20;1.00
13470;DHT22;6807;48.682;9.032;2023-04-25T05:10:02;6.30;1.00
13470;DHT22;6807;48.682;9.032;2023-04-25T05:12:30;6.40;1.00
13470;DHT22;6807;48.682;9.032;2023-04-25T05:14:57;6.50;1.00
13470;DHT22;6807;48.682;9.032;2023-04-25T05:17:24;7.00;1.00
13470;DHT22;6807;48.682;9.032;2023-04-25T05:19:52;6.30;1.00
13470;DHT22;6807;48.682;9.032;2023-04-25T05:22:20;6.20;1.00
13470;DHT22;6807;48.682;9.032;2023-04-25T05:24:47;6.60;1.00
13470;DHT22;6807;48.682;9.032;2023-04-25T05:27:16;6.70;1.00
13470;DHT22;6807;48.682;9.032;2023-04-25T05:29:43;6.30;1.00
13470;DHT22;6807;48.682;9.032;2023-04-25T05:32:10;6.30;1.00
13470;DHT22;6807;48.682;9.032;2023-04-25T05:34:37;6.70;1.00
13470;DHT22;6807;48.682;9.032;2023-04-25T05:37:04;6.40;1.00
13470;DHT22;6807;48.682;9.032;2023-04-25T05:39:32;6.30;1.00
13470;DHT22;6807;48.682;9.032;2023-04-25T05:41:59;6.40;1.00
13470;DHT22;6807;48.682;9.032;2023-04-25T05:44:26;6.50;1.00
13470;DHT22;6807;48.682;9.032;2023-04-25T05:46:54;6.90;1.00
13470;DHT22;6807;48.682;9.032;2023-04-25T05:49:21;6.90;1.00
13470;DHT22;6807;48.682;9.032;2023-04-25T05:51:48;6.50;1.00
13470;DHT22;6807;48.682;9.032;2023-04-25T05:54:15;6.50;1.00
13470;DHT22;6807;48.682;9.032;2023-04-25T05:56:43;6.40;1.00
13470;DHT22;6807;48.682;9.032;2023-04-25T05:59:10;6.80;1.00
13470;DHT22;6807;48.682;9.032;2023-04-25T06:01:37;6.90;1.00
13470;DHT22;6807;48.682;9.032;2023-04-25T06:04:04;6.80;1.00
13470;DHT22;6807;48.682;9.032;2023-04-25T06:06:31;7.20;1.00
13470;DHT22;6807;48.682;9.032;2023-04-25T06:08:57;7.20;1.00
13470;DHT22;6807;48.682;9.032;2023-04-25T06:11:24;7.30;1.00
13470;DHT22;6807;48.682;9.032;2023-04-25T06:13:52;7.50;1.00
13470;DHT22;6807;48.682;9.032;2023-04-25T06:16:20;7.40;1.00
13470;DHT22;6807;48.682;9.032;2023-04-25T06:18:47;7.80;1.00
13470;DHT22;6807;48.682;9.032;2023-04-25T06:21:13;7.70;1.00
13470;DHT22;6807;48.682;9.032;2023-04-25T06:23:40;8.00;1.00
13470;DHT22;6807;48.682;9.032;2023-04-25T06:26:08;7.60;1.00
13470;DHT22;6807;48.682;9.032;2023-04-25T06:28:34;7.50;1.00
13470;DHT22;6807;48.682;9.032;2023-04-25T06:31:03;7.50;1.00
13470;DHT22;6807;48.682;9.032;2023-04-25T06:33:30;7.40;1.00
13470;DHT22;6807;48.682;9.032;2023-04-25T06:35:56;7.20;1.00
13470;DHT22;6807;48.682;9.032;2023-04-25T06:38:23;7.10;1.00
13470;DHT22;6807;48.682;9.032;2023-04-25T06:40:50;7.00;1.00
13470;DHT22;6807;48.682;9.032;2023-04-25T06:43:17;7.00;1.00
13470;DHT22;6807;48.682;9.032;2023-04-25T06:45:44;7.00;1.00
13470;DHT22;6807;48.682;9.032;2023-04-25T06:48:13;7.30;1.00
13470;DHT22;6807;48.682;9.032;2023-04-25T06:50:40;6.80;1.00
13470;DHT22;6807;48.682;9.032;2023-04-25T06:53:06;6.90;1.00
13470;DHT22;6807;48.682;9.032;2023-04-25T06:55:34;6.80;1.00
13470;DHT22;6807;48.682;9.032;2023-04-25T06:58:01;6.80;1.00
13470;DHT22;6807;48.682;9.032;2023-04-25T07:00:28;6.90;1.00
13470;DHT22;6807;48.682;9.032;2023-04-25T07:02:55;6.80;1.00
13470;DHT22;6807;48.682;9.032;2023-04-25T07:05:24;6.90;1.00
13470;DHT22;6807;48.682;9.032;2023-04-25T07:07:51;6.90;1.00
13470;DHT22;6807;48.682;9.032;2023-04-25T07:10:18;7.00;1.00
13470;DHT22;6807;48.682;9.032;2023-04-25T07:12:45;6.90;1.00
13470;DHT22;6807;48.682;9.032;2023-04-25T07:15:13;6.90;1.00
13470;DHT22;6807;48.682;9.032;2023-04-25T07:17:40;7.10;1.00
13470;DHT22;6807;48.682;9.032;2023-04-25T07:20:07;7.10;1.00
13470;DHT22;6807;48.682;9.032;2023-04-25T07:22:37;7.00;1.00
13470;DHT22;6807;48.682;9.032;2023-04-25T07:25:04;7.10;1.00
13470;DHT22;6807;48.682;9.032;2023-04-25T07:27:31;7.00;1.00
13470;DHT22;6807;48.682;9.032;2023-04-25T07:29:58;7.10;1.00
13470;DHT22;6807;48.682;9.032;2023-04-25T07:32:26;7.20;1.00
13470;DHT22;6807;48.682;9.032;2023-04-25T07:34:53;7.30;1.00
13470;DHT22;6807;48.682;9.032;2023-04-25T07:37:20;7.00;1.00
13470;DHT22;6807;48.682;9.032;2023-04-25T07:39:48;7.00;1.00
13470;DHT22;6807;48.682;9.032;2023-04-25T07:42:15;7.40;1.00
13470;DHT22;6807;48.682;9.032;2023-04-25T07:44:44;7.10;1.00
13470;DHT22;6807;48.682;9.032;2023-04-25T07:47:11;6.80;1.00
13470;DHT22;6807;48.682;9.032;2023-04-25T07:49:38;6.90;1.00
13470;DHT22;6807;48.682;9.032;2023-04-25T07:52:06;6.70;1.00
13470;DHT22;6807;48.682;9.032;2023-04-25T07:54:33;6.60;1.00
13470;DHT22;6807;48.682;9.032;2023-04-25T07:57:01;7.30;1.00
13470;DHT22;6807;48.682;9.032;2023-04-25T07:59:28;6.60;1.00
13470;DHT22;6807;48.682;9.032;2023-04-25T08:01:55;6.60;1.00
13470;DHT22;6807;48.682;9.032;2023-04-25T08:04:23;6.70;1.00
13470;DHT22;6807;48.682;9.032;2023-04-25T08:06:50;6.60;1.00
13470;DHT22;6807;48.682;9.032;2023-04-25T08:09:19;6.80;1.00
13470;DHT22;6807;48.682;9.032;2023-04-25T08:11:46;6.60;1.00
13470;DHT22;6807;48.682;9.032;2023-04-25T08:14:14;6.70;1.00
13470;DHT22;6807;48.682;9.032;2023-04-25T08:16:42;6.80;1.00
13470;DHT22;6807;48.682;9.032;2023-04-25T08:19:11;6.70;1.00
13470;DHT22;6807;48.682;9.032;2023-04-25T08:21:39;6.60;1.00
13470;DHT22;6807;48.682;9.032;2023-04-25T08:24:07;6.60;1.00
13470;DHT22;6807;48.682;9.032;2023-04-25T08:26:34;6.30;1.00
13470;DHT22;6807;48.682;9.032;2023-04-25T08:29:02;6.60;1.00
13470;DHT22;6807;48.682;9.032;2023-04-25T08:31:31;6.40;1.00
13470;DHT22;6807;48.682;9.032;2023-04-25T08:33:58;6.40;1.00
13470;DHT22;6807;48.682;9.032;2023-04-25T08:36:25;6.30;1.00
13470;DHT22;6807;48.682;9.032;2023-04-25T08:38:53;6.30;1.00
13470;DHT22;6807;48.682;9.032;2023-04-25T08:41:21;6.40;1.00
13470;DHT22;6807;48.682;9.032;2023-04-25T08:43:50;7.10;1.00
13470;DHT22;6807;48.682;9.032;2023-04-25T08:46:18;6.40;1.00
13470;DHT22;6807;48.682;9.032;2023-04-25T08:48:47;6.30;1.00
13470;DHT22;6807;48.682;9.032;2023-04-25T08:51:20;6.90;4.90
13470;DHT22;6807;48.682;9.032;2023-04-25T08:53:50;6.40;18.60
13470;DHT22;6807;48.682;9.032;2023-04-25T08:56:18;6.40;1.00
13470;DHT22;6807;48.682;9.032;2023-04-25T08:58:48;6.50;1.00
13470;DHT22;6807;48.682;9.032;2023-04-25T09:01:16;6.20;1.00
13470;DHT22;6807;48.682;9.032;2023-04-25T09:03:44;6.10;1.00
13470;DHT22;6807;48.682;9.032;2023-04-25T09:06:14;6.00;1.00
13470;DHT22;6807;48.682;9.032;2023-04-25T09:08:42;6.10;1.00
13470;DHT22;6807;48.682;9.032;2023-04-25T09:11:09;6.10;1.00
13470;DHT22;6807;48.682;9.032;2023-04-25T09:13:37;6.00;1.00
13470;DHT22;6807;48.682;9.032;2023-04-25T09:16:04;6.00;1.00
13470;DHT22;6807;48.682;9.032;2023-04-25T09:18:33;6.00;1.00
13470;DHT22;6807;48.682;9.032;2023-04-25T09:21:06;5.90;1.00
13470;DHT22;6807;48.682;9.032;2023-04-25T09:23:41;5.90;1.00
13470;DHT22;6807;48.682;9.032;2023-04-25T09:26:09;5.80;1.00
13470;DHT22;6807;48.682;9.032;2023-04-25T09:28:36;5.90;1.00
13470;DHT22;6807;48.682;9.032;2023-04-25T09:31:04;5.80;1.00
13470;DHT22;6807;48.682;9.032;2023-04-25T09:33:33;5.80;1.00
13470;DHT22;6807;48.682;9.032;2023-04-25T09:36:03;5.70;1.00
13470;DHT22;6807;48.682;9.032;2023-04-25T09:38:31;5.80;1.00
13470;DHT22;6807;48.682;9.032;2023-04-25T09:41:01;5.80;1.00
13470;DHT22;6807;48.682;9.032;2023-04-25T09:43:28;5.80;1.00
13470;DHT22;6807;48.682;9.032;2023-04-25T09:45:55;5.70;1.00
13470;DHT22;6807;48.682;9.032;2023-04-25T09:48:25;5.70;1.00
13470;DHT22;6807;48.682;9.032;2023-04-25T09:51:13;5.70;1.00
13470;DHT22;6807;48.682;9.032;2023-04-25T09:53:41;5.50;1.00
13470;DHT22;6807;48.682;9.032;2023-04-25T09:56:11;5.60;37.20
13470;DHT22;6807;48.682;9.032;2023-04-25T09:58:39;5.70;1.00
13470;DHT22;6807;48.682;9.032;2023-04-25T10:01:07;5.60;1.00
13470;DHT22;6807;48.682;9.032;2023-04-25T10:03:36;5.70;18.20
13470;DHT22;6807;48.682;9.032;2023-04-25T10:06:07;5.70;1.00
13470;DHT22;6807;48.682;9.032;2023-04-25T10:08:37;5.60;1.00
13470;DHT22;6807;48.682;9.032;2023-04-25T10:11:05;5.40;1.00
13470;DHT22;6807;48.682;9.032;2023-04-25T10:13:35;5.30;1.00
13470;DHT22;6807;48.682;9.032;2023-04-25T10:16:04;5.40;1.00
13470;DHT22;6807;48.682;9.032;2023-04-25T10:18:32;5.50;1.00
13470;DHT22;6807;48.682;9.032;2023-04-25T10:21:00;5.40;1.00
13470;DHT22;6807;48.682;9.032;2023-04-25T10:23:30;5.50;1.00
13470;DHT22;6807;48.682;9.032;2023-04-25T10:26:00;5.60;1.00
13470;DHT22;6807;48.682;9.032;2023-04-25T10:28:27;5.70;1.00
13470;DHT22;6807;48.682;9.032;2023-04-25T10:31:00;5.90;1.00
13470;DHT22;6807;48.682;9.032;2023-04-25T10:33:35;6.00;1.00
13470;DHT22;6807;48.682;9.032;2023-04-25T10:36:10;6.00;1.00
13470;DHT22;6807;48.682;9.032;2023-04-25T10:38:37;6.10;1.00
13470;DHT22;6807;48.682;9.032;2023-04-25T10:41:05;6.10;1.00
13470;DHT22;6807;48.682;9.032;2023-04-25T10:43:36;6.20;1.00
13470;DHT22;6807;48.682;9.032;2023-04-25T10:46:13;6.10;1.00
13470;DHT22;6807;48.682;9.032;2023-04-25T10:48:45;6.40;1.00
13470;DHT22;6807;48.682;9.032;2023-04-25T10:51:17;6.20;1.00
13470;DHT22;6807;48.682;9.032;2023-04-25T10:53:44;6.20;1.00
13470;DHT22;6807;48.682;9.032;2023-04-25T10:56:12;6.10;1.00
13470;DHT22;6807;48.682;9.032;2023-04-25T10:58:44;6.20;1.00
13470;DHT22;6807;48.682;9.032;2023-04-25T11:01:15;6.30;1.00
13470;DHT22;6807;48.682;9.032;2023-04-25T11:03:43;6.40;1.00
13470;DHT22;6807;48.682;9.032;2023-04-25T11:06:22;6.40;1.00
13470;DHT22;6807;48.682;9.032;2023-04-25T11:08:50;6.40;1.00
13470;DHT22;6807;48.682;9.032;2023-04-25T11:11:20;6.30;1.00
13470;DHT22;6807;48.682;9.032;2023-04-25T11:13:48;6.20;1.00
13470;DHT22;6807;48.682;9.032;2023-04-25T11:16:16;6.60;1.00
13470;DHT22;6807;48.682;9.032;2023-04-25T11:18:44;6.70;1.00
13470;DHT22;6807;48.682;9.032;2023-04-25T11:21:14;6.60;1.00
13470;DHT22;6807;48.682;9.032;2023-04-25T11:23:46;6.70;1.00
13470;DHT22;6807;48.682;9.032;2023-04-25T11:26:13;6.80;1.00
13470;DHT22;6807;48.682;9.032;2023-04-25T11:28:40;6.50;1.00
13470;DHT22;6807;48.682;9.032;2023-04-25T11:31:07;6.40;1.00
13470;DHT22;6807;48.682;9.032;2023-04-25T11:33:37;6.30;1.00
13470;DHT22;6807;48.682;9.032;2023-04-25T11:36:07;6.70;62.40
13470;DHT22;6807;48.682;9.032;2023-04-25T11:38:34;7.00;84.60
13470;DHT22;6807;48.682;9.032;2023-04-25T11:41:03;7.10;1.00
13470;DHT22;6807;48.682;9.032;2023-04-25T11:43:37;7.20;1.00
13470;DHT22;6807;48.682;9.032;2023-04-25T11:46:06;7.30;1.00
13470;DHT22;6807;48.682;9.032;2023-04-25T11:48:38;7.60;1.00
13470;DHT22;6807;48.682;9.032;2023-04-25T11:51:05;7.70;1.00
13470;DHT22;6807;48.682;9.032;2023-04-25T11:53:32;7.60;1.00
13470;DHT22;6807;48.682;9.032;2023-04-25T11:55:59;7.70;1.00
13470;DHT22;6807;48.682;9.032;2023-04-25T11:58:26;7.80;1.00
13470;DHT22;6807;48.682;9.032;2023-04-25T12:00:53;8.10;1.00
13470;DHT22;6807;48.682;9.032;2023-04-25T12:03:25;8.10;1.00
13470;DHT22;6807;48.682;9.032;2023-04-25T12:06:03;8.00;1.00
13470;DHT22;6807;48.682;9.032;2023-04-25T12:08:31;8.30;1.00
13470;DHT22;6807;48.682;9.032;2023-04-25T12:10:58;8.20;1.00
13470;DHT22;6807;48.682;9.032;2023-04-25T12:13:26;8.40;1.00
13470;DHT22;6807;48.682;9.032;2023-04-25T12:15:54;8.50;1.00
13470;DHT22;6807;48.682;9.032;2023-04-25T12:18:24;8.50;99.90
13470;DHT22;6807;48.682;9.032;2023-04-25T12:20:53;8.60;1.00
13470;DHT22;6807;48.682;9.032;2023-04-25T12:23:26;8.70;1.00
13470;DHT22;6807;48.682;9.032;2023-04-25T12:25:58;8.50;1.00
13470;DHT22;6807;48.682;9.032;2023-04-25T12:28:28;8.50;1.00
13470;DHT22;6807;48.682;9.032;2023-04-25T12:30:58;8.20;1.00
13470;DHT22;6807;48.682;9.032;2023-04-25T12:33:27;8.10;1.00
13470;DHT22;6807;48.682;9.032;2023-04-25T12:35:55;8.00;1.00
13470;DHT22;6807;48.682;9.032;2023-04-25T12:38:26;7.90;1.00
13470;DHT22;6807;48.682;9.032;2023-04-25T12:40:53;8.00;1.00
13470;DHT22;6807;48.682;9.032;2023-04-25T12:43:22;8.10;1.00
13470;DHT22;6807;48.682;9.032;2023-04-25T12:45:51;8.00;1.00
13470;DHT22;6807;48.682;9.032;2023-04-25T12:48:19;8.10;1.00
13470;DHT22;6807;48.682;9.032;2023-04-25T12:50:47;8.30;1.00
13470;DHT22;6807;48.682;9.032;2023-04-25T12:53:15;8.10;99.90
13470;DHT22;6807;48.682;9.032;2023-04-25T12:55:44;8.20;1.00
13470;DHT22;6807;48.682;9.032;2023-04-25T12:58:12;8.40;1.00
13470;DHT22;6807;48.682;9.032;2023-04-25T13:00:42;8.40;1.00
13470;DHT22;6807;48.682;9.032;2023-04-25T13:03:09;8.50;99.90
13470;DHT22;6807;48.682;9.032;2023-04-25T13:05:36;8.50;1.00
13470;DHT22;6807;48.682;9.032;2023-04-25T13:08:03;8.60;1.00
13470;DHT22;6807;48.682;9.032;2023-04-25T13:10:31;8.70;99.90
13470;DHT22;6807;48.682;9.032;2023-04-25T13:13:00;8.90;1.00
13470;DHT22;6807;48.682;9.032;2023-04-25T13:15:28;9.10;99.90
13470;DHT22;6807;48.682;9.032;2023-04-25T13:17:55;9.30;99.90
13470;DHT22;6807;48.682;9.032;2023-04-25T13:20:22;9.30;99.90
13470;DHT22;6807;48.682;9.032;2023-04-25T13:22:50;9.50;99.90
13470;DHT22;6807;48.682;9.032;2023-04-25T13:25:17;9.40;99.90
13470;DHT22;6807;48.682;9.032;2023-04-25T13:27:44;9.80;99.90
13470;DHT22;6807;48.682;9.032;2023-04-25T13:30:13;9.60;99.90
13470;DHT22;6807;48.682;9.032;2023-04-25T13:32:40;9.70;99.90
13470;DHT22;6807;48.682;9.032;2023-04-25T13:35:09;10.00;99.90
13470;DHT22;6807;48.682;9.032;2023-04-25T13:37:36;10.30;99.90
13470;DHT22;6807;48.682;9.032;2023-04-25T13:40:05;10.70;99.90
13470;DHT22;6807;48.682;9.032;2023-04-25T13:42:34;11.50;99.90
13470;DHT22;6807;48.682;9.032;2023-04-25T13:45:02;11.60;99.90
13470;DHT22;6807;48.682;9.032;2023-04-25T13:47:31;11.30;99.90
13470;DHT22;6807;48.682;9.032;2023-04-25T13:49:58;11.10;99.90
13470;DHT22;6807;48.682;9.032;2023-04-25T13:52:25;10.60;99.90
13470;DHT22;6807;48.682;9.032;2023-04-25T13:54:52;10.30;99.90
13470;DHT22;6807;48.682;9.032;2023-04-25T13:57:20;10.10;99.90
13470;DHT22;6807;48.682;9.032;2023-04-25T13:59:47;10.10;99.90
13470;DHT22;6807;48.682;9.032;2023-04-25T14:02:14;10.20;99.90
13470;DHT22;6807;48.682;9.032;2023-04-25T14:04:42;10.30;99.90
13470;DHT22;6807;48.682;9.032;2023-04-25T14:07:11;10.50;99.90
13470;DHT22;6807;48.682;9.032;2023-04-25T14:09:41;10.60;99.90
13470;DHT22;6807;48.682;9.032;2023-04-25T14:12:08;10.40;99.90
13470;DHT22;6807;48.682;9.032;2023-04-25T14:14:35;10.70;99.90
13470;DHT22;6807;48.682;9.032;2023-04-25T14:17:03;11.00;99.90
13470;DHT22;6807;48.682;9.032;2023-04-25T14:19:30;11.10;99.90
13470;DHT22;6807;48.682;9.032;2023-04-25T14:21:59;11.00;99.90
13470;DHT22;6807;48.682;9.032;2023-04-25T14:24:26;10.90;99.90
13470;DHT22;6807;48.682;9.032;2023-04-25T14:26:53;10.60;99.90
13470;DHT22;6807;48.682;9.032;2023-04-25T14:29:20;10.50;99.90
13470;DHT22;6807;48.682;9.032;2023-04-25T14:31:48;10.20;99.90
13470;DHT22;6807;48.682;9.032;2023-04-25T14:34:15;10.40;99.90
13470;DHT22;6807;48.682;9.032;2023-04-25T14:36:42;10.20;99.90
13470;DHT22;6807;48.682;9.032;2023-04-25T14:39:10;9.90;99.90
13470;DHT22;6807;48.682;9.032;2023-04-25T14:41:40;9.80;99.90
13470;DHT22;6807;48.682;9.032;2023-04-25T14:44:07;9.80;99.90
13470;DHT22;6807;48.682;9.032;2023-04-25T14:46:35;9.90;99.90
13470;DHT22;6807;48.682;9.032;2023-04-25T14:49:04;9.30;99.90
13470;DHT22;6807;48.682;9.032;2023-04-25T14:51:31;9.40;99.90
13470;DHT22;6807;48.682;9.032;2023-04-25T14:53:58;9.60;99.90
13470;DHT22;6807;48.682;9.032;2023-04-25T14:56:27;9.60;99.90
13470;DHT22;6807;48.682;9.032;2023-04-25T14:58:54;10.00;99.90
13470;DHT22;6807;48.682;9.032;2023-04-25T15:01:22;10.10;99.90
13470;DHT22;6807;48.682;9.032;2023-04-25T15:03:49;10.40;99.90
13470;DHT22;6807;48.682;9.032;2023-04-25T15:06:16;10.70;99.90
13470;DHT22;6807;48.682;9.032;2023-04-25T15:08:47;11.70;99.90
13470;DHT22;6807;48.682;9.032;2023-04-25T15:11:14;11.40;99.90
13470;DHT22;6807;48.682;9.032;2023-04-25T15:13:44;11.10;99.90
13470;DHT22;6807;48.682;9.032;2023-04-25T15:16:11;11.40;99.90
13470;DHT22;6807;48.682;9.032;2023-04-25T15:18:38;12.30;99.90
13470;DHT22;6807;48.682;9.032;2023-04-25T15:21:05;12.90;99.90
13470;DHT22;6807;48.682;9.032;2023-04-25T15:23:34;12.40;99.90
13470;DHT22;6807;48.682;9.032;2023-04-25T15:26:02;11.50;99.90
13470;DHT22;6807;48.682;9.032;2023-04-25T15:28:29;11.70;99.90
13470;DHT22;6807;48.682;9.032;2023-04-25T15:30:58;12.00;99.90
13470;DHT22;6807;48.682;9.032;2023-04-25T15:33:25;12.30;99.90
13470;DHT22;6807;48.682;9.032;2023-04-25T15:35:52;12.30;99.90
13470;DHT22;6807;48.682;9.032;2023-04-25T15:38:19;11.80;99.90
13470;DHT22;6807;48.682;9.032;2023-04-25T15:40:46;11.40;99.90
13470;DHT22;6807;48.682;9.032;2023-04-25T15:43:13;11.10;99.90
13470;DHT22;6807;48.682;9.032;2023-04-25T15:45:42;11.30;97.50
13470;DHT22;6807;48.682;9.032;2023-04-25T15:48:12;11.30;90.50
13470;DHT22;6807;48.682;9.032;2023-04-25T15:50:40;11.20;99.90
13470;DHT22;6807;48.682;9.032;2023-04-25T15:53:07;11.30;99.90
13470;DHT22;6807;48.682;9.032;2023-04-25T15:55:35;11.30;98.70
13470;DHT22;6807;48.682;9.032;2023-04-25T15:58:03;11.20;63.90
13470;DHT22;6807;48.682;9.032;2023-04-25T16:00:31;10.60;71.10
13470;DHT22;6807;48.682;9.032;2023-04-25T16:03:01;10.50;67.60
13470;DHT22;6807;48.682;9.032;2023-04-25T16:05:33;10.30;65.90
13470;DHT22;6807;48.682;9.032;2023-04-25T16:08:02;10.10;83.30
13470;DHT22;6807;48.682;9.032;2023-04-25T16:10:30;10.20;94.50
13470;DHT22;6807;48.682;9.032;2023-04-25T16:12:59;10.10;82.90